Time;durP1;ratioP1;P1;durP2;ratioP2;P2;SDS_P1;SDS_P2;PMS_P1;PMS_P2;Temp;Humidity;BMP_temperature;BMP_pressure;BME280_temperature;BME280_humidity;BME280_pressure;Samples;Min_cycle;Max_cycle;Signal;HPM_P1;HPM_P2
2022/08/15 00:01:53;;;;;;;28.47;21.25;;;;;;;17.84;100.00;98302.88;4214244;83;21077;-82
2022/08/15 00:07:55;;;;;;;28.15;20.37;;;;;;;17.89;100.00;98288.49;4206050;83;21020;-83
2022/08/15 00:14:03;;;;;;;27.58;20.17;;;;;;;17.86;100.00;98286.61;4210058;83;21023;-83
2022/08/15 00:20:08;;;;;;;26.30;18.98;;;;;;;17.78;100.00;98281.70;4198855;83;22199;-82
2022/08/15 00:26:13;;;;;;;28.27;19.15;;;;;;;17.66;100.00;98275.53;4208195;83;21066;-84
2022/08/15 00:32:19;;;;;;;27.93;18.55;;;;;;;17.73;100.00;98270.56;4222956;83;21839;-82
2022/08/15 00:38:27;;;;;;;25.80;18.10;;;;;;;17.60;100.00;98276.70;4215605;83;21541;-82
2022/08/15 00:44:34;;;;;;;21.25;16.52;;;;;;;17.53;100.00;98260.28;4216179;83;21086;-82
2022/08/15 00:50:37;;;;;;;21.27;16.25;;;;;;;17.51;100.00;98261.31;4217041;83;21078;-82
2022/08/15 00:56:50;;;;;;;24.72;16.85;;;;;;;17.45;100.00;98271.37;4209518;83;21542;-82
2022/08/15 01:02:54;;;;;;;20.68;16.30;;;;;;;17.37;100.00;98274.76;4212811;83;21017;-82
2022/08/15 01:09:01;;;;;;;23.67;17.07;;;;;;;17.39;100.00;98266.77;4214877;83;21921;-82
2022/08/15 01:15:08;;;;;;;22.25;16.50;;;;;;;17.37;100.00;98278.28;4231030;82;21062;-82
2022/08/15 01:21:39;;;;;;;23.12;17.10;;;;;;;17.36;100.00;98268.44;4214888;83;21062;-82
2022/08/15 01:27:59;;;;;;;26.77;17.32;;;;;;;17.32;100.00;98261.45;4199020;83;21072;-82
2022/08/15 01:34:01;;;;;;;23.27;17.02;;;;;;;17.32;100.00;98258.06;4201018;83;21531;-83
2022/08/15 01:40:33;;;;;;;23.18;16.15;;;;;;;17.31;100.00;98257.91;4220286;83;22118;-82
2022/08/15 01:46:42;;;;;;;22.20;16.82;;;;;;;17.33;100.00;98250.55;4199313;83;21608;-82
2022/08/15 01:52:58;;;;;;;23.02;16.87;;;;;;;17.33;100.00;98248.56;4192362;84;22261;-81
2022/08/15 01:59:06;;;;;;;20.85;14.85;;;;;;;17.32;100.00;98252.53;4192775;84;21059;-81
2022/08/15 02:05:10;;;;;;;20.55;15.80;;;;;;;17.33;100.00;98237.50;4195943;84;21116;-81
2022/08/15 02:11:17;;;;;;;21.37;15.25;;;;;;;17.40;100.00;98236.53;4190798;84;21117;-82
2022/08/15 02:17:20;;;;;;;25.60;16.32;;;;;;;17.27;100.00;98235.70;4200143;84;21008;-83
2022/08/15 02:23:21;;;;;;;22.93;16.17;;;;;;;17.19;100.00;98230.35;4170094;84;21026;-81
2022/08/15 02:29:26;;;;;;;21.45;14.90;;;;;;;17.10;100.00;98216.38;4201654;84;21492;-82
2022/08/15 02:35:31;;;;;;;26.27;17.12;;;;;;;16.94;100.00;98211.52;4192832;83;21772;-82
2022/08/15 02:41:40;;;;;;;19.85;15.95;;;;;;;16.81;100.00;98199.61;4197811;84;21099;-83
2022/08/15 02:47:46;;;;;;;;;;;;;;;16.74;100.00;98196.42;4190051;84;21015;-81
2022/08/15 02:53:49;;;;;;;20.80;14.63;;;;;;;16.79;100.00;98186.83;4185666;84;20187;-82
2022/08/15 02:59:52;;;;;;;21.55;16.70;;;;;;;16.66;100.00;98190.91;4185123;84;20991;-82
2022/08/15 03:05:57;;;;;;;20.00;14.28;;;;;;;16.59;100.00;98195.84;4184383;84;21107;-81
2022/08/15 03:11:59;;;;;;;21.20;13.95;;;;;;;16.54;100.00;98190.23;4195822;84;21059;-82
2022/08/15 03:18:05;;;;;;;16.50;12.78;;;;;;;16.48;100.00;98191.19;4200087;84;21026;-82
2022/08/15 03:24:08;;;;;;;21.60;14.40;;;;;;;16.56;100.00;98185.66;4202860;84;21054;-80
2022/08/15 03:30:13;;;;;;;20.57;13.58;;;;;;;16.49;100.00;98190.00;4166872;84;21062;-81
2022/08/15 03:36:20;;;;;;;19.32;12.58;;;;;;;16.40;100.00;98193.33;4191105;84;21535;-81
2022/08/15 03:42:21;;;;;;;28.30;15.55;;;;;;;16.28;100.00;98194.63;4185435;84;21067;-80
2022/08/15 03:48:26;;;;;;;22.80;16.48;;;;;;;16.31;100.00;98206.19;4187238;84;21099;-82
2022/08/15 03:54:28;;;;;;;28.67;18.27;;;;;;;16.29;100.00;98209.37;4178583;83;21118;-83
2022/08/15 04:00:36;;;;;;;25.08;15.93;;;;;;;16.30;100.00;98214.31;4195919;84;21552;-81
2022/08/15 04:06:40;;;;;;;20.43;15.10;;;;;;;16.35;100.00;98222.84;4196146;84;21024;-81
2022/08/15 04:12:43;;;;;;;24.20;15.18;;;;;;;16.54;100.00;98234.45;4181294;84;20979;-81
2022/08/15 04:18:45;;;;;;;30.00;18.57;;;;;;;16.64;100.00;98224.34;4166464;84;21111;-83
2022/08/15 04:24:46;;;;;;;35.58;19.90;;;;;;;16.68;100.00;98225.02;4191291;83;21032;-83
2022/08/15 04:30:48;;;;;;;41.63;22.77;;;;;;;16.74;100.00;98226.83;4188767;84;20999;-81
2022/08/15 04:36:52;;;;;;;45.08;25.45;;;;;;;16.89;100.00;98214.80;4196424;84;21035;-80
2022/08/15 04:42:55;;;;;;;48.45;25.68;;;;;;;17.00;100.00;98214.70;4193426;84;21076;-82
2022/08/15 04:48:56;;;;;;;44.88;25.00;;;;;;;17.11;100.00;98212.42;4195293;84;21464;-80
2022/08/15 04:54:58;;;;;;;47.58;26.45;;;;;;;17.21;100.00;98213.35;4167504;84;21047;-83
2022/08/15 05:01:07;;;;;;;51.80;26.12;;;;;;;17.30;100.00;98213.48;4174564;84;21016;-82
2022/08/15 05:07:13;;;;;;;51.48;27.35;;;;;;;17.39;100.00;98210.06;4172908;84;21005;-81
2022/08/15 05:13:20;;;;;;;44.45;25.23;;;;;;;17.50;100.00;98209.97;4193392;84;20977;-84
2022/08/15 05:19:23;;;;;;;47.65;26.42;;;;;;;17.62;100.00;98200.16;4191414;84;20968;-82
2022/08/15 05:25:24;;;;;;;45.95;24.23;;;;;;;17.73;100.00;98195.83;4202984;84;21516;-83
2022/08/15 05:31:27;;;;;;;40.25;22.77;;;;;;;17.86;100.00;98203.55;4194806;84;21091;-82
2022/08/15 05:37:30;;;;;;;36.25;20.37;;;;;;;17.91;100.00;98204.98;4191897;83;21004;-81
2022/08/15 05:44:14;;;;;;;29.75;19.87;;;;;;;17.97;100.00;98206.77;4157298;84;20999;-82
2022/08/15 05:50:27;;;;;;;28.87;19.55;;;;;;;18.01;100.00;98212.20;4155811;84;21087;-82
2022/08/15 05:56:50;;;;;;;27.35;19.37;;;;;;;18.09;100.00;98225.37;4163864;84;22237;-82
2022/08/15 06:03:00;;;;;;;27.98;19.95;;;;;;;18.21;100.00;98221.81;4157879;84;21063;-84
2022/08/15 06:09:30;;;;;;;26.55;19.20;;;;;;;18.28;100.00;98220.22;4153809;84;22238;-82
2022/08/15 06:15:58;;;;;;;26.77;19.67;;;;;;;18.36;100.00;98211.85;4153991;84;21019;-83
2022/08/15 06:22:34;;;;;;;25.15;18.55;;;;;;;18.47;100.00;98213.70;4147944;84;21023;-81
2022/08/15 06:28:59;;;;;;;24.80;17.92;;;;;;;18.66;100.00;98221.59;4163659;84;21009;-83
2022/08/15 06:35:25;;;;;;;24.67;19.32;;;;;;;18.87;100.00;98224.26;4156758;84;21608;-82
2022/08/15 06:41:52;;;;;;;29.60;19.75;;;;;;;19.07;100.00;98230.29;4176792;84;21014;-83
2022/08/15 06:48:08;;;;;;;27.22;20.37;;;;;;;19.21;100.00;98228.41;4092236;85;21522;-83
2022/08/15 06:54:17;;;;;;;28.17;19.90;;;;;;;19.35;100.00;98232.87;4192612;84;21033;-82
2022/08/15 07:00:31;;;;;;;32.60;22.90;;;;;;;19.48;100.00;98225.87;4119843;85;21087;-82
2022/08/15 07:06:48;;;;;;;37.67;25.15;;;;;;;19.56;100.00;98222.36;4120007;85;21663;-82
2022/08/15 07:13:12;;;;;;;39.27;25.02;;;;;;;19.65;100.00;98220.27;4101806;85;21083;-81
2022/08/15 07:19:11;;;;;;;46.95;25.95;;;;;;;19.76;100.00;98225.56;4166820;84;21055;-82
2022/08/15 07:25:22;;;;;;;37.93;24.32;;;;;;;19.85;100.00;98236.75;4184318;84;21080;-82
2022/08/15 07:31:34;;;;;;;32.65;23.87;;;;;;;19.94;100.00;98229.84;4162657;84;21019;-82
2022/08/15 07:37:41;;;;;;;33.13;23.77;;;;;;;20.09;100.00;98226.67;4081369;85;21236;-82
2022/08/15 07:43:44;;;;;;;34.03;22.62;;;;;;;20.16;100.00;98236.77;4229171;82;21021;-82
2022/08/15 07:50:04;;;;;;;35.15;23.35;;;;;;;20.25;100.00;98242.36;4228764;83;21043;-82
2022/08/15 07:56:15;;;;;;;34.35;24.23;;;;;;;20.39;100.00;98232.70;4071734;86;21150;-82
2022/08/15 08:02:23;;;;;;;37.25;24.07;;;;;;;20.62;100.00;98234.31;4083723;85;21693;-83
2022/08/15 08:08:48;;;;;;;32.33;22.45;;;;;;;20.76;100.00;98231.55;4129511;85;21100;-84
2022/08/15 08:15:17;;;;;;;33.70;23.50;;;;;;;20.88;100.00;98233.42;4190020;83;21043;-82
2022/08/15 08:21:25;;;;;;;35.50;22.70;;;;;;;21.04;100.00;98235.34;4204037;83;21083;-84
2022/08/15 08:27:58;;;;;;;31.95;23.35;;;;;;;21.28;100.00;98239.04;4224714;83;21043;-84
2022/08/15 08:34:07;;;;;;;28.47;22.22;;;;;;;21.51;100.00;98237.03;4212099;83;22204;-84
2022/08/15 08:47:00;;;;;;;25.23;19.67;;;;;;;21.86;100.00;98247.84;4130106;83;21032;-83
2022/08/15 08:53:40;;;;;;;25.80;19.45;;;;;;;22.25;100.00;98250.36;4212542;83;21012;-85
2022/08/15 09:00:09;;;;;;;29.63;21.12;;;;;;;22.59;100.00;98236.59;4199883;83;21040;-85
2022/08/15 09:06:15;;;;;;;28.85;21.30;;;;;;;22.88;100.00;98247.91;4214881;83;21448;-84
2022/08/15 09:19:08;;;;;;;23.40;19.48;;;;;;;23.44;100.00;98250.61;4211885;83;20980;-86
2022/08/15 09:25:09;;;;;;;23.05;18.87;;;;;;;23.80;100.00;98246.70;4215418;83;22286;-85
2022/08/15 09:31:15;;;;;;;22.32;17.90;;;;;;;24.09;100.00;98248.89;4205967;83;21106;-86
2022/08/15 09:37:45;;;;;;;21.65;18.48;;;;;;;24.85;100.00;98242.83;4213191;83;21548;-86
2022/08/15 09:44:12;;;;;;;21.75;17.82;;;;;;;25.61;100.00;98237.42;4207707;83;21005;-84
2022/08/15 09:50:40;;;;;;;;;;;;;;;26.45;100.00;98222.12;4214058;83;22120;-84
2022/08/15 09:56:44;;;;;;;18.25;15.68;;;;;;;27.27;98.97;98215.59;4205928;83;20111;-84
2022/08/15 10:02:51;;;;;;;19.40;16.65;;;;;;;27.85;98.51;98205.50;4208789;83;21084;-83
2022/08/15 10:08:58;;;;;;;18.02;15.95;;;;;;;28.29;95.64;98208.36;4201648;83;21566;-85
2022/08/15 10:15:07;;;;;;;18.62;14.85;;;;;;;28.83;94.92;98208.81;4205306;83;21610;-83
2022/08/15 10:21:23;;;;;;;19.37;15.55;;;;;;;29.25;92.17;98202.78;4200930;83;21041;-85
2022/08/15 10:27:26;;;;;;;15.50;13.93;;;;;;;29.48;88.54;98198.55;4203369;83;21005;-84
2022/08/15 10:33:42;;;;;;;18.40;15.80;;;;;;;29.75;88.39;98199.06;4200960;83;22010;-83
2022/08/15 10:40:22;;;;;;;15.98;14.33;;;;;;;29.92;86.24;98198.30;4204559;83;21059;-84
2022/08/15 10:46:39;;;;;;;14.80;13.28;;;;;;;29.99;84.10;98197.71;4215877;83;21529;-83
2022/08/15 10:52:57;;;;;;;16.60;14.23;;;;;;;30.09;81.76;98197.52;4208955;83;21031;-84
2022/08/15 10:59:13;;;;;;;15.98;13.98;;;;;;;30.12;80.60;98188.63;4203051;83;21108;-85
2022/08/15 11:05:20;;;;;;;17.25;13.28;;;;;;;30.04;77.60;98185.62;4208258;83;21075;-85
2022/08/15 11:11:26;;;;;;;15.35;13.85;;;;;;;30.40;76.23;98184.30;4205035;83;21914;-85
2022/08/15 11:17:32;;;;;;;15.23;13.38;;;;;;;30.61;74.66;98188.84;4206192;83;21024;-84
2022/08/15 11:23:39;;;;;;;13.45;12.10;;;;;;;30.52;72.36;98181.47;4199304;82;21557;-84
2022/08/15 11:29:43;;;;;;;15.20;12.78;;;;;;;30.98;72.94;98179.73;4205128;83;21057;-85
2022/08/15 11:35:45;;;;;;;13.60;12.18;;;;;;;31.27;71.89;98173.95;4212039;83;21060;-85
2022/08/15 11:41:55;;;;;;;12.73;11.53;;;;;;;31.39;69.90;98168.92;4206820;83;22177;-85
2022/08/15 11:47:58;;;;;;;13.20;11.90;;;;;;;31.31;68.71;98165.18;4201672;83;20971;-85
2022/08/15 11:54:14;;;;;;;13.00;11.75;;;;;;;31.01;67.57;98169.52;4207403;83;21066;-84
2022/08/15 12:00:30;;;;;;;13.88;12.50;;;;;;;30.69;67.65;98161.55;4203885;83;21479;-83
2022/08/15 12:06:36;;;;;;;;;;;;;;;30.59;66.79;98162.44;4212288;83;21905;-86
2022/08/15 12:12:44;;;;;;;14.15;12.65;;;;;;;29.95;65.04;98161.97;4207866;83;20200;-84
2022/08/15 12:18:46;;;;;;;14.38;12.45;;;;;;;29.41;64.83;98165.29;4204085;83;21015;-84
2022/08/15 12:24:48;;;;;;;14.90;13.35;;;;;;;29.23;64.90;98148.98;4200936;83;21173;-84
2022/08/15 12:31:01;;;;;;;17.23;13.40;;;;;;;29.06;65.12;98139.84;4214759;83;21416;-83
2022/08/15 12:37:10;;;;;;;13.10;11.50;;;;;;;28.87;64.41;98145.91;4200835;83;21037;-83
2022/08/15 12:43:11;;;;;;;13.90;12.50;;;;;;;28.73;64.76;98147.77;4203166;83;21076;-85
2022/08/15 12:49:13;;;;;;;14.90;12.55;;;;;;;28.67;64.38;98141.39;4189814;83;21490;-83
2022/08/15 12:55:14;;;;;;;14.73;12.85;;;;;;;28.42;64.43;98133.23;4209493;83;21035;-83
2022/08/15 13:01:16;;;;;;;13.05;11.48;;;;;;;28.46;64.33;98130.91;4202818;82;21029;-84
2022/08/15 13:07:19;;;;;;;13.28;11.88;;;;;;;28.35;64.11;98126.72;4205613;83;21072;-84
2022/08/15 13:13:21;;;;;;;14.93;12.15;;;;;;;28.19;64.12;98127.53;4214046;83;21018;-84
2022/08/15 13:19:27;;;;;;;12.65;10.58;;;;;;;28.08;64.40;98122.67;4211383;83;21000;-84
2022/08/15 13:25:29;;;;;;;12.63;10.63;;;;;;;28.05;64.39;98119.48;4204182;83;20997;-84
2022/08/15 13:31:30;;;;;;;12.45;11.15;;;;;;;28.00;64.40;98111.06;4205520;83;21869;-86
2022/08/15 13:37:33;;;;;;;16.50;12.78;;;;;;;27.96;64.57;98104.28;4209204;83;21762;-84
2022/08/15 13:43:36;;;;;;;12.43;11.15;;;;;;;27.82;64.64;98087.63;4201765;83;21584;-83
2022/08/15 13:49:39;;;;;;;14.78;11.25;;;;;;;27.77;64.80;98091.98;4201248;83;21003;-84
2022/08/15 13:55:40;;;;;;;12.33;10.90;;;;;;;27.77;64.60;98089.17;4203795;83;20990;-83
2022/08/15 14:01:46;;;;;;;13.18;11.68;;;;;;;27.74;64.84;98088.80;4212914;83;21713;-83
2022/08/15 14:07:48;;;;;;;14.23;11.60;;;;;;;27.72;64.86;98092.75;4195445;83;20991;-84
2022/08/15 14:13:49;;;;;;;14.03;10.43;;;;;;;27.67;64.86;98084.33;4197077;83;21895;-84
